Terminal Aerodrome Forecast
Issued by NWS

Home | Current Version | Previous Version | Graphics & Text | Print | Product List | Glossary On
Versions: 1 2 3 4 5 6 7 8 9 10 11 12
038
FTUS43 KGRB 161128
TAFAUW
TAF
KAUW 161128Z 1612/1712 30011G18KT P6SM SKC
     FM161800 27010KT P6SM SKC
     FM170000 23006KT P6SM SKC
     FM170600 20007KT P6SM BKN200 WS020/25040KT
     FM171000 20009KT P6SM BKN100 WS020/25045KT=

USA.gov is the U.S. government's official web portal to all federal, state and local government web resources and services.